Time;durP1;ratioP1;P1;durP2;ratioP2;P2;SDS_P1;SDS_P2;PMS_P1;PMS_P2;Temp;Humidity;BMP_temperature;BMP_pressure;BME280_temperature;BME280_humidity;BME280_pressure;Samples;Min_cycle;Max_cycle;Signal;HPM_P1;HPM_P2
2023/11/03 00:00:21;;;;;;;1.95;0.50;;;10.80;85.10;;;;;;4978062;28;20116;-72
2023/11/03 00:02:46;;;;;;;0.85;0.30;;;10.80;85.40;;;;;;4990574;28;20043;-71
2023/11/03 00:05:12;;;;;;;1.08;0.55;;;10.90;85.00;;;;;;4986450;28;20026;-71
2023/11/03 00:07:39;;;;;;;0.80;0.35;;;10.80;85.00;;;;;;4984229;28;20019;-71
2023/11/03 00:10:05;;;;;;;0.30;0.20;;;10.80;85.40;;;;;;4984024;28;20490;-71
2023/11/03 00:12:35;;;;;;;0.73;0.43;;;10.80;85.10;;;;;;4983659;28;20027;-71
2023/11/03 00:15:01;;;;;;;1.67;0.60;;;10.80;85.10;;;;;;4985462;28;20494;-71
2023/11/03 00:17:26;;;;;;;1.55;0.52;;;10.70;85.30;;;;;;4985896;28;20120;-71
2023/11/03 00:19:53;;;;;;;1.45;0.55;;;10.70;85.50;;;;;;4988573;28;20180;-70
2023/11/03 00:22:18;;;;;;;1.08;0.47;;;10.60;85.50;;;;;;4987051;28;20041;-72
2023/11/03 00:24:44;;;;;;;0.52;0.50;;;10.60;85.30;;;;;;4989569;28;20031;-74
2023/11/03 00:27:10;;;;;;;0.50;0.43;;;10.50;86.00;;;;;;4983022;28;20498;-71
2023/11/03 00:29:36;;;;;;;0.82;0.35;;;10.50;86.10;;;;;;4983421;28;20034;-71
2023/11/03 00:32:03;;;;;;;0.77;0.30;;;10.30;86.50;;;;;;4984381;28;20029;-71
2023/11/03 00:34:28;;;;;;;0.70;0.60;;;10.20;86.80;;;;;;4988913;28;20031;-72
2023/11/03 00:36:54;;;;;;;0.90;0.40;;;10.10;87.00;;;;;;4982613;28;20403;-72
2023/11/03 00:39:19;;;;;;;0.77;0.40;;;10.20;86.80;;;;;;4986815;28;20430;-72
2023/11/03 00:41:47;;;;;;;1.67;0.60;;;10.20;86.80;;;;;;4984541;28;20038;-71
2023/11/03 00:44:14;;;;;;;0.20;0.20;;;10.10;86.70;;;;;;4987290;28;20041;-71
2023/11/03 00:46:40;;;;;;;0.30;0.30;;;10.00;87.40;;;;;;4981319;28;20027;-71
2023/11/03 00:49:07;;;;;;;4.35;0.30;;;9.90;87.80;;;;;;4990782;28;20471;-70
2023/11/03 00:51:33;;;;;;;2.67;0.50;;;9.70;88.30;;;;;;4984273;28;20030;-71
2023/11/03 00:54:00;;;;;;;1.30;0.40;;;9.60;88.40;;;;;;4989278;28;20125;-72
2023/11/03 00:56:25;;;;;;;1.48;0.30;;;9.80;87.60;;;;;;4986317;28;20034;-71
2023/11/03 00:58:52;;;;;;;0.32;0.32;;;9.80;87.40;;;;;;4981318;28;20479;-71
2023/11/03 01:01:18;;;;;;;2.00;0.65;;;9.60;88.00;;;;;;4986076;28;20030;-71
2023/11/03 01:03:44;;;;;;;1.25;0.50;;;9.80;87.30;;;;;;4984436;28;20494;-71
2023/11/03 01:06:10;;;;;;;7.53;0.98;;;9.80;87.00;;;;;;4983477;28;20065;-70
2023/11/03 01:08:36;;;;;;;1.48;0.50;;;9.70;87.20;;;;;;4988218;28;20069;-71
2023/11/03 01:11:02;;;;;;;1.77;0.60;;;9.80;86.80;;;;;;4974192;28;20034;-70
2023/11/03 01:13:28;;;;;;;0.65;0.30;;;9.90;86.10;;;;;;4980363;28;20426;-70
2023/11/03 01:15:54;;;;;;;0.75;0.40;;;10.00;85.80;;;;;;4990544;28;20105;-72
2023/11/03 01:18:19;;;;;;;0.20;0.20;;;10.00;85.70;;;;;;4981388;28;20152;-70
2023/11/03 01:20:48;;;;;;;1.30;0.45;;;10.10;85.40;;;;;;4983413;28;20042;-70
2023/11/03 01:23:14;;;;;;;0.50;0.38;;;10.10;85.20;;;;;;4987905;28;20069;-71
2023/11/03 01:25:40;;;;;;;1.08;0.47;;;10.10;85.00;;;;;;4981882;28;20030;-70
2023/11/03 01:28:06;;;;;;;1.65;0.40;;;10.00;85.50;;;;;;4981982;28;20065;-72
2023/11/03 01:30:31;;;;;;;1.20;0.40;;;10.00;85.30;;;;;;4985016;28;20034;-70
2023/11/03 01:32:57;;;;;;;1.35;0.55;;;10.00;85.50;;;;;;4985318;28;20388;-70
2023/11/03 01:35:26;;;;;;;0.52;0.30;;;10.10;84.90;;;;;;4983348;28;20030;-70
2023/11/03 01:37:53;;;;;;;1.00;0.45;;;10.00;85.30;;;;;;4983355;28;20038;-71
2023/11/03 01:40:19;;;;;;;0.20;0.20;;;9.80;85.70;;;;;;4989708;28;20109;-70
2023/11/03 01:42:48;;;;;;;0.38;0.32;;;9.80;85.90;;;;;;4981234;28;20871;-71
2023/11/03 01:45:13;;;;;;;1.17;0.40;;;9.80;85.80;;;;;;4985356;28;20034;-71
2023/11/03 01:47:39;;;;;;;0.60;0.35;;;9.90;85.60;;;;;;4984792;28;20038;-70
2023/11/03 01:50:05;;;;;;;0.55;0.40;;;9.80;85.80;;;;;;4989065;28;20034;-71
2023/11/03 01:52:34;;;;;;;0.88;0.40;;;9.80;85.70;;;;;;4988649;28;20454;-70
2023/11/03 01:55:00;;;;;;;0.95;0.30;;;9.90;85.60;;;;;;4985392;28;20646;-70
2023/11/03 01:57:26;;;;;;;1.23;0.50;;;9.80;85.40;;;;;;4985975;28;20030;-72
2023/11/03 01:59:53;;;;;;;1.20;0.65;;;9.90;85.20;;;;;;4985679;28;20074;-70
2023/11/03 02:02:22;;;;;;;0.40;0.40;;;9.90;85.10;;;;;;4977800;28;20026;-70
2023/11/03 02:04:48;;;;;;;0.73;0.30;;;10.00;85.10;;;;;;4985458;28;20049;-71
2023/11/03 02:07:14;;;;;;;1.52;0.50;;;10.10;84.60;;;;;;4979583;28;20035;-71
2023/11/03 02:09:40;;;;;;;0.30;0.28;;;9.90;85.00;;;;;;4987862;28;20042;-70
2023/11/03 02:12:06;;;;;;;0.98;0.35;;;9.90;85.50;;;;;;4987182;28;20050;-71
2023/11/03 02:14:32;;;;;;;0.38;0.20;;;9.90;85.40;;;;;;4989419;28;20509;-71
2023/11/03 02:16:58;;;;;;;1.13;0.30;;;9.90;84.90;;;;;;4987464;28;20385;-70
2023/11/03 02:19:24;;;;;;;0.60;0.30;;;10.10;84.30;;;;;;4992094;28;20030;-70
2023/11/03 02:21:51;;;;;;;1.88;0.40;;;10.10;84.70;;;;;;4983544;28;20023;-71
2023/11/03 02:24:16;;;;;;;0.85;0.40;;;10.00;84.80;;;;;;4990321;28;20459;-70
2023/11/03 02:26:42;;;;;;;0.20;0.10;;;10.10;84.40;;;;;;4985644;28;20056;-70
2023/11/03 02:29:08;;;;;;;0.57;0.20;;;9.90;84.90;;;;;;4981753;28;20035;-70
2023/11/03 02:31:34;;;;;;;0.55;0.38;;;9.90;84.90;;;;;;4985537;28;20477;-72
2023/11/03 02:33:59;;;;;;;1.30;0.30;;;10.00;84.20;;;;;;4992337;28;20059;-70
2023/11/03 02:36:25;;;;;;;0.95;0.80;;;9.90;84.50;;;;;;4989095;28;20479;-70
2023/11/03 02:38:52;;;;;;;2.67;0.50;;;9.90;84.80;;;;;;4992047;28;20038;-70
2023/11/03 02:41:19;;;;;;;0.20;0.20;;;10.00;84.20;;;;;;4985064;28;20042;-70
2023/11/03 02:43:45;;;;;;;0.30;0.30;;;10.10;83.60;;;;;;4987947;28;20049;-70
2023/11/03 02:46:10;;;;;;;1.00;0.40;;;10.20;83.20;;;;;;4982243;28;20030;-71
2023/11/03 02:48:36;;;;;;;2.08;0.45;;;10.20;83.40;;;;;;4991529;28;20066;-70
2023/11/03 02:51:03;;;;;;;1.13;0.32;;;10.20;83.30;;;;;;4988081;28;20033;-70
2023/11/03 02:53:29;;;;;;;0.85;0.40;;;10.20;83.10;;;;;;4987110;28;20038;-71
2023/11/03 02:55:55;;;;;;;0.10;0.10;;;10.10;83.50;;;;;;4988078;28;20114;-72
2023/11/03 02:58:21;;;;;;;0.28;0.22;;;10.10;83.30;;;;;;4985427;28;20162;-70
2023/11/03 03:00:46;;;;;;;0.57;0.28;;;10.10;83.60;;;;;;4989583;28;20454;-71
2023/11/03 03:03:12;;;;;;;0.43;0.20;;;10.10;83.60;;;;;;4987438;28;20049;-70
2023/11/03 03:05:37;;;;;;;0.52;0.30;;;10.20;83.50;;;;;;4983411;28;20443;-70
2023/11/03 03:08:04;;;;;;;0.20;0.20;;;10.10;83.20;;;;;;4986077;28;20034;-70
2023/11/03 03:10:30;;;;;;;1.45;0.20;;;10.10;83.70;;;;;;4984068;28;20038;-71
2023/11/03 03:12:55;;;;;;;0.30;0.30;;;10.10;83.80;;;;;;4984496;28;20165;-71
2023/11/03 03:15:21;;;;;;;0.75;0.20;;;10.10;83.70;;;;;;4989669;28;20508;-70
2023/11/03 03:17:47;;;;;;;1.70;0.52;;;10.10;83.70;;;;;;4987340;28;20057;-71
2023/11/03 03:20:12;;;;;;;2.33;0.63;;;10.10;83.80;;;;;;4980862;28;20038;-71
2023/11/03 03:22:38;;;;;;;1.92;0.40;;;10.10;83.70;;;;;;4987257;28;20101;-70
2023/11/03 03:25:04;;;;;;;0.28;0.28;;;10.10;83.50;;;;;;4985084;28;20028;-70
2023/11/03 03:27:29;;;;;;;2.53;0.47;;;10.00;83.90;;;;;;4983957;28;20105;-72
2023/11/03 03:29:55;;;;;;;0.88;0.25;;;9.90;83.90;;;;;;4983453;28;20034;-71
2023/11/03 03:32:20;;;;;;;1.15;0.38;;;9.80;84.30;;;;;;4981279;28;20038;-69
2023/11/03 03:34:45;;;;;;;1.02;0.50;;;9.70;84.60;;;;;;4984400;28;20046;-71
2023/11/03 03:37:13;;;;;;;1.15;0.30;;;9.70;84.30;;;;;;4987540;28;20034;-71
2023/11/03 03:39:39;;;;;;;1.08;0.50;;;9.70;84.10;;;;;;4983762;28;20030;-71
2023/11/03 03:42:06;;;;;;;2.72;0.40;;;9.60;84.60;;;;;;4981573;28;20506;-73
2023/11/03 03:44:33;;;;;;;0.30;0.22;;;9.60;84.50;;;;;;4984257;28;20066;-70
2023/11/03 03:46:58;;;;;;;2.28;0.57;;;9.50;84.90;;;;;;4985582;28;20479;-71
2023/11/03 03:49:24;;;;;;;0.20;0.20;;;9.50;84.70;;;;;;4991210;28;20101;-71
2023/11/03 03:51:49;;;;;;;2.25;0.70;;;9.40;85.00;;;;;;4985967;28;20093;-71
2023/11/03 03:54:15;;;;;;;1.60;0.30;;;9.50;84.70;;;;;;4990152;28;20042;-70
2023/11/03 03:56:41;;;;;;;1.90;0.50;;;9.50;84.40;;;;;;4989251;28;20030;-71
2023/11/03 03:59:07;;;;;;;1.40;0.40;;;9.50;84.30;;;;;;4979160;28;20031;-71
2023/11/03 04:01:32;;;;;;;0.65;0.47;;;9.50;84.40;;;;;;4985478;28;20030;-71
2023/11/03 04:03:58;;;;;;;0.52;0.30;;;9.50;84.50;;;;;;4983317;28;20035;-72
2023/11/03 04:06:23;;;;;;;0.28;0.10;;;9.60;84.00;;;;;;4984993;28;20038;-71
2023/11/03 04:08:49;;;;;;;0.30;0.22;;;9.60;84.20;;;;;;4990148;28;20369;-71
2023/11/03 04:11:15;;;;;;;0.10;0.10;;;9.60;84.10;;;;;;4984783;28;20038;-71
2023/11/03 04:13:40;;;;;;;0.68;0.50;;;9.50;84.60;;;;;;4987695;28;20042;-72
2023/11/03 04:16:06;;;;;;;1.80;0.52;;;9.40;84.90;;;;;;4978170;28;20093;-71
2023/11/03 04:18:32;;;;;;;1.92;0.47;;;9.50;84.60;;;;;;4988437;28;20383;-70
2023/11/03 04:20:58;;;;;;;1.13;0.68;;;9.50;84.90;;;;;;4976975;28;20458;-71
2023/11/03 04:23:23;;;;;;;0.20;0.20;;;9.40;84.80;;;;;;4982660;28;20130;-71
2023/11/03 04:25:53;;;;;;;1.02;0.40;;;9.40;84.80;;;;;;4984797;28;20038;-70
2023/11/03 04:28:19;;;;;;;1.20;0.77;;;9.50;84.70;;;;;;4982523;28;20033;-71
2023/11/03 04:30:45;;;;;;;1.48;0.35;;;9.50;84.80;;;;;;4984683;28;20073;-72
2023/11/03 04:33:12;;;;;;;0.52;0.20;;;9.40;85.20;;;;;;4987707;28;20089;-70
2023/11/03 04:35:37;;;;;;;1.15;0.45;;;9.50;84.80;;;;;;4988780;28;20545;-70
2023/11/03 04:38:03;;;;;;;0.85;0.40;;;9.40;85.20;;;;;;4982099;28;20042;-72
2023/11/03 04:40:28;;;;;;;2.40;0.47;;;9.40;85.20;;;;;;4984498;28;20164;-70
2023/11/03 04:42:54;;;;;;;2.30;0.32;;;9.40;85.30;;;;;;4982981;28;20279;-71
2023/11/03 04:45:20;;;;;;;0.20;0.20;;;9.40;85.50;;;;;;4980160;28;20450;-71
2023/11/03 04:47:45;;;;;;;0.32;0.30;;;9.30;85.30;;;;;;4979236;28;20034;-70
2023/11/03 04:50:11;;;;;;;0.35;0.20;;;9.40;85.10;;;;;;4975059;28;20038;-72
2023/11/03 04:52:40;;;;;;;0.47;0.30;;;9.30;85.20;;;;;;4969862;28;20031;-71
2023/11/03 04:55:08;;;;;;;2.97;0.45;;;9.30;85.40;;;;;;4987892;28;20924;-72
2023/11/03 04:57:37;;;;;;;0.40;0.35;;;9.30;85.40;;;;;;4984708;28;20038;-71
2023/11/03 05:00:04;;;;;;;1.60;0.32;;;9.30;85.40;;;;;;4980235;28;20039;-74
2023/11/03 05:02:29;;;;;;;0.30;0.20;;;9.30;85.20;;;;;;4985983;28;20030;-71
2023/11/03 05:04:55;;;;;;;0.40;0.30;;;9.30;85.60;;;;;;4986491;28;20545;-71
2023/11/03 05:07:21;;;;;;;0.85;0.50;;;9.30;85.40;;;;;;4983971;28;20034;-71
2023/11/03 05:09:47;;;;;;;1.13;0.40;;;9.30;85.40;;;;;;4979391;28;20054;-70
2023/11/03 05:12:12;;;;;;;2.50;0.77;;;9.30;85.40;;;;;;4981745;28;20034;-71
2023/11/03 05:14:38;;;;;;;1.25;0.73;;;9.30;85.30;;;;;;4983410;28;20034;-71
2023/11/03 05:17:05;;;;;;;1.83;0.40;;;9.30;85.70;;;;;;4981802;28;20038;-71
2023/11/03 05:19:30;;;;;;;0.82;0.40;;;9.30;85.60;;;;;;4982446;28;20045;-70
2023/11/03 05:21:56;;;;;;;0.25;0.20;;;9.20;85.70;;;;;;4977321;28;20026;-72
2023/11/03 05:24:21;;;;;;;0.50;0.43;;;9.30;85.60;;;;;;4984671;28;20113;-71
2023/11/03 05:26:47;;;;;;;1.65;0.30;;;9.30;85.50;;;;;;4979068;28;20404;-68
2023/11/03 05:29:14;;;;;;;0.25;0.20;;;9.30;85.20;;;;;;4987681;28;20042;-67
2023/11/03 05:31:39;;;;;;;1.45;0.73;;;9.30;85.10;;;;;;4985432;28;20491;-67
2023/11/03 05:34:05;;;;;;;0.68;0.35;;;9.30;85.30;;;;;;4981799;28;20145;-66
2023/11/03 05:36:31;;;;;;;2.80;0.45;;;9.30;85.30;;;;;;4980970;28;20109;-66
2023/11/03 05:38:57;;;;;;;1.38;0.40;;;9.30;85.10;;;;;;4982486;28;20161;-67
2023/11/03 05:41:24;;;;;;;0.73;0.52;;;9.30;85.60;;;;;;4982806;28;20110;-66
2023/11/03 05:43:50;;;;;;;1.58;0.43;;;9.30;85.40;;;;;;4982882;28;20053;-67
2023/11/03 05:46:16;;;;;;;1.38;0.38;;;9.30;85.20;;;;;;4987931;28;20031;-67
2023/11/03 05:48:41;;;;;;;0.50;0.38;;;9.30;85.00;;;;;;4986383;28;20035;-66
2023/11/03 05:51:07;;;;;;;3.90;0.52;;;9.30;85.30;;;;;;4988385;28;20480;-68
2023/11/03 05:53:32;;;;;;;0.47;0.20;;;9.40;85.20;;;;;;4991862;28;20049;-66
2023/11/03 05:55:58;;;;;;;1.92;0.60;;;9.40;85.00;;;;;;4989601;28;20052;-67
2023/11/03 05:58:23;;;;;;;2.50;0.80;;;9.40;84.80;;;;;;4983945;28;20404;-67
2023/11/03 06:00:49;;;;;;;3.10;0.50;;;9.40;85.10;;;;;;4987961;28;20425;-68
2023/11/03 06:03:14;;;;;;;0.38;0.30;;;9.50;84.80;;;;;;4985769;28;20045;-67
2023/11/03 06:05:40;;;;;;;1.75;0.40;;;9.50;84.20;;;;;;4985630;28;20482;-67
2023/11/03 06:08:05;;;;;;;1.67;0.35;;;9.50;84.50;;;;;;4987519;28;20463;-68
2023/11/03 06:10:31;;;;;;;0.55;0.32;;;9.50;84.40;;;;;;4990458;28;20031;-67
2023/11/03 06:12:57;;;;;;;0.98;0.50;;;9.50;84.50;;;;;;4983714;28;20362;-68
2023/11/03 06:15:22;;;;;;;1.02;0.40;;;9.50;84.80;;;;;;4986790;28;20065;-68
2023/11/03 06:17:48;;;;;;;1.20;0.50;;;9.50;85.00;;;;;;4991785;28;20106;-65
2023/11/03 06:20:14;;;;;;;2.30;0.60;;;9.50;84.70;;;;;;4984625;28;20527;-66
2023/11/03 06:22:40;;;;;;;0.40;0.20;;;9.50;84.80;;;;;;4989908;28;20024;-66
2023/11/03 06:25:07;;;;;;;0.75;0.50;;;9.50;84.80;;;;;;4987066;28;20038;-69
2023/11/03 06:27:32;;;;;;;2.50;0.40;;;9.50;85.30;;;;;;4988762;28;20057;-66
2023/11/03 06:29:57;;;;;;;1.40;0.52;;;9.40;85.40;;;;;;4991364;28;20034;-68
2023/11/03 06:32:23;;;;;;;1.08;0.30;;;9.40;85.40;;;;;;4987147;28;20113;-66
2023/11/03 06:34:48;;;;;;;0.22;0.22;;;9.40;85.10;;;;;;4987932;28;20391;-67
2023/11/03 06:37:14;;;;;;;0.40;0.35;;;9.40;85.50;;;;;;4989505;28;20034;-66
2023/11/03 06:39:39;;;;;;;0.55;0.22;;;9.30;85.50;;;;;;4990511;28;20030;-65
2023/11/03 06:42:06;;;;;;;1.05;0.32;;;9.30;85.70;;;;;;4992656;28;20035;-66
2023/11/03 06:44:32;;;;;;;0.32;0.30;;;9.30;85.90;;;;;;4989174;28;20034;-66
2023/11/03 06:46:58;;;;;;;1.67;0.35;;;9.30;85.40;;;;;;4985112;28;20058;-65
2023/11/03 06:49:24;;;;;;;1.27;0.40;;;9.40;85.50;;;;;;4993893;28;20383;-66
2023/11/03 06:51:50;;;;;;;2.83;0.50;;;9.40;85.30;;;;;;4992521;28;20114;-67
2023/11/03 06:54:15;;;;;;;0.77;0.35;;;9.30;85.60;;;;;;4989706;28;20085;-69
2023/11/03 06:56:42;;;;;;;2.53;0.80;;;9.30;86.10;;;;;;4990905;28;20113;-65
2023/11/03 06:59:07;;;;;;;0.55;0.38;;;9.30;85.90;;;;;;4988016;28;20031;-66
2023/11/03 07:01:34;;;;;;;0.90;0.32;;;9.30;85.90;;;;;;4986543;28;20036;-67
2023/11/03 07:04:00;;;;;;;1.55;0.40;;;9.40;85.50;;;;;;4989923;28;20058;-67
2023/11/03 07:06:26;;;;;;;1.60;0.30;;;9.40;85.70;;;;;;4984613;28;20066;-68
2023/11/03 07:08:51;;;;;;;1.08;0.40;;;9.50;85.20;;;;;;4985215;28;20398;-68
2023/11/03 07:11:16;;;;;;;2.08;0.65;;;9.40;85.70;;;;;;4980294;28;20097;-68
2023/11/03 07:13:43;;;;;;;0.47;0.17;;;9.50;85.30;;;;;;4981279;28;20038;-68
2023/11/03 07:16:12;;;;;;;0.88;0.40;;;9.40;85.70;;;;;;4988597;28;20040;-68
2023/11/03 07:18:38;;;;;;;1.98;0.40;;;9.50;85.60;;;;;;4991282;28;20026;-67
2023/11/03 07:21:14;;;;;;;0.25;0.25;;;9.50;85.00;;;;;;4990032;28;20038;-67
2023/11/03 07:23:39;;;;;;;0.47;0.30;;;9.50;85.80;;;;;;4992305;28;20034;-67
2023/11/03 07:26:05;;;;;;;1.42;0.40;;;9.50;85.30;;;;;;4987774;28;20343;-67
2023/11/03 07:28:31;;;;;;;0.85;0.32;;;9.50;85.20;;;;;;4989635;28;20038;-67
2023/11/03 07:30:57;;;;;;;2.30;0.40;;;9.50;85.20;;;;;;4987623;28;20085;-68
2023/11/03 07:33:22;;;;;;;2.15;0.82;;;9.50;85.20;;;;;;4992350;28;20037;-67
2023/11/03 07:35:48;;;;;;;1.25;0.40;;;9.50;85.40;;;;;;4987538;28;20076;-68
2023/11/03 07:38:14;;;;;;;2.67;0.68;;;9.60;85.40;;;;;;4988080;28;20065;-68
2023/11/03 07:40:39;;;;;;;0.50;0.20;;;9.60;85.20;;;;;;4989678;28;20391;-67
2023/11/03 07:43:08;;;;;;;0.63;0.20;;;9.60;85.50;;;;;;4985306;28;20120;-69
2023/11/03 07:45:33;;;;;;;1.38;0.60;;;9.60;85.50;;;;;;4989334;28;20448;-68
2023/11/03 07:47:59;;;;;;;1.95;0.52;;;9.60;85.20;;;;;;4994119;28;20085;-69
2023/11/03 07:50:25;;;;;;;0.30;0.28;;;9.60;85.50;;;;;;4987872;28;20041;-67
2023/11/03 07:52:51;;;;;;;0.45;0.35;;;9.60;85.70;;;;;;4991719;28;20045;-69
2023/11/03 07:55:16;;;;;;;0.28;0.20;;;9.60;85.70;;;;;;4987895;28;20434;-68
2023/11/03 07:57:43;;;;;;;3.38;0.75;;;9.60;85.60;;;;;;4988983;28;20089;-67
2023/11/03 08:00:12;;;;;;;0.75;0.30;;;9.60;85.10;;;;;;4989020;28;20022;-68
2023/11/03 08:02:38;;;;;;;0.52;0.32;;;9.70;85.30;;;;;;4984607;28;20522;-70
2023/11/03 08:05:06;;;;;;;0.90;0.40;;;9.70;85.10;;;;;;4988464;28;20121;-71
2023/11/03 08:07:32;;;;;;;0.70;0.32;;;9.70;85.40;;;;;;4984730;28;20030;-69
2023/11/03 08:09:58;;;;;;;1.35;0.73;;;9.70;84.90;;;;;;4991430;28;20065;-67
2023/11/03 08:12:25;;;;;;;0.35;0.20;;;9.80;85.50;;;;;;4983880;28;20105;-68
2023/11/03 08:14:50;;;;;;;1.15;0.45;;;9.80;85.10;;;;;;4989642;28;20129;-68
2023/11/03 08:17:16;;;;;;;0.75;0.43;;;9.80;85.50;;;;;;4987590;28;20105;-67
2023/11/03 08:19:46;;;;;;;0.40;0.20;;;9.80;85.40;;;;;;4988155;28;20061;-68
2023/11/03 08:22:11;;;;;;;0.47;0.20;;;9.80;85.10;;;;;;4986048;28;20030;-68
2023/11/03 08:24:37;;;;;;;1.30;0.47;;;9.80;85.20;;;;;;4985703;28;20121;-68
2023/11/03 08:27:03;;;;;;;0.50;0.30;;;9.80;85.10;;;;;;4986842;28;20388;-69
2023/11/03 08:29:29;;;;;;;0.40;0.40;;;9.90;84.90;;;;;;4986729;28;20034;-67
2023/11/03 08:31:54;;;;;;;1.83;0.38;;;9.90;85.00;;;;;;4985379;28;20106;-70
2023/11/03 08:34:20;;;;;;;0.32;0.20;;;10.00;85.10;;;;;;4976733;28;20093;-68
2023/11/03 08:36:46;;;;;;;0.47;0.20;;;9.90;84.80;;;;;;4989241;28;20467;-69
2023/11/03 08:39:12;;;;;;;1.13;0.50;;;9.90;84.70;;;;;;4990934;28;20145;-67
2023/11/03 08:41:39;;;;;;;0.40;0.28;;;9.90;85.00;;;;;;4986419;28;20507;-68
2023/11/03 08:44:05;;;;;;;0.82;0.30;;;9.90;84.80;;;;;;4987505;28;20057;-67
2023/11/03 08:46:31;;;;;;;2.72;0.55;;;9.90;84.90;;;;;;4987100;28;20129;-67
2023/11/03 08:48:59;;;;;;;2.00;0.43;;;9.90;84.60;;;;;;4991489;28;20506;-68
2023/11/03 08:51:25;;;;;;;1.48;0.35;;;9.90;84.50;;;;;;4988181;28;20074;-68
2023/11/03 08:53:50;;;;;;;0.22;0.22;;;9.90;84.70;;;;;;4990975;28;20034;-67
2023/11/03 08:56:16;;;;;;;0.55;0.28;;;9.80;85.30;;;;;;4986285;28;20392;-68
2023/11/03 08:58:42;;;;;;;0.85;0.40;;;9.90;85.00;;;;;;4981934;28;20062;-68
2023/11/03 09:01:09;;;;;;;0.88;0.35;;;9.90;85.20;;;;;;4983402;28;20066;-68
2023/11/03 09:03:35;;;;;;;1.02;0.52;;;9.90;85.20;;;;;;5005016;28;20042;-67
2023/11/03 09:06:02;;;;;;;0.38;0.22;;;9.90;85.50;;;;;;4983564;28;20038;-68
2023/11/03 09:08:27;;;;;;;1.67;0.50;;;9.90;85.70;;;;;;4983608;28;20380;-67
2023/11/03 09:10:53;;;;;;;1.50;0.60;;;9.90;85.00;;;;;;4985504;28;20111;-70
2023/11/03 09:13:19;;;;;;;0.20;0.20;;;9.90;85.20;;;;;;4981322;28;20391;-68
2023/11/03 09:15:45;;;;;;;0.65;0.38;;;10.00;85.20;;;;;;4985741;28;20027;-68
2023/11/03 09:18:11;;;;;;;3.22;0.60;;;9.90;85.40;;;;;;4987913;28;20073;-68
2023/11/03 09:20:38;;;;;;;0.90;0.40;;;9.90;85.70;;;;;;4992107;28;20074;-67
2023/11/03 09:23:04;;;;;;;1.50;0.50;;;9.90;86.20;;;;;;4997235;28;20383;-70
2023/11/03 09:25:30;;;;;;;0.20;0.20;;;9.90;86.80;;;;;;4990512;28;20030;-68
2023/11/03 09:27:56;;;;;;;0.40;0.30;;;9.80;86.70;;;;;;4984772;28;20042;-69
2023/11/03 09:30:22;;;;;;;0.22;0.22;;;9.80;87.30;;;;;;4989359;28;20035;-67
2023/11/03 09:32:48;;;;;;;0.30;0.20;;;9.80;87.30;;;;;;5005571;28;20129;-68
2023/11/03 09:35:14;;;;;;;0.45;0.22;;;9.80;87.50;;;;;;4991572;28;20031;-67
2023/11/03 09:37:39;;;;;;;0.60;0.45;;;9.80;87.40;;;;;;4987642;28;20041;-67
2023/11/03 09:40:10;;;;;;;0.82;0.40;;;9.80;87.30;;;;;;4994733;28;20034;-69
2023/11/03 09:42:36;;;;;;;2.87;0.37;;;9.80;87.80;;;;;;4983861;28;20037;-68
2023/11/03 09:45:06;;;;;;;1.70;0.55;;;9.80;87.70;;;;;;4982205;28;20085;-69
2023/11/03 09:47:31;;;;;;;1.00;0.40;;;9.80;87.70;;;;;;4990290;28;20039;-68
2023/11/03 09:49:58;;;;;;;2.03;0.50;;;9.90;87.10;;;;;;4986346;28;20030;-66
2023/11/03 09:52:24;;;;;;;2.53;0.30;;;9.90;87.30;;;;;;4985298;28;20085;-68
2023/11/03 09:54:51;;;;;;;1.00;0.40;;;9.90;87.50;;;;;;4982634;28;20423;-67
2023/11/03 09:57:18;;;;;;;0.60;0.32;;;9.90;87.40;;;;;;4987423;28;20042;-68
2023/11/03 09:59:43;;;;;;;1.00;0.57;;;10.00;87.10;;;;;;4985170;28;20435;-68
2023/11/03 10:02:19;;;;;;;0.93;0.43;;;10.00;87.40;;;;;;4988899;28;20031;-68
2023/11/03 10:04:45;;;;;;;0.57;0.40;;;10.00;87.70;;;;;;4991535;28;20030;-68
2023/11/03 10:07:12;;;;;;;0.88;0.40;;;10.00;87.70;;;;;;4987501;28;20384;-68
2023/11/03 10:09:39;;;;;;;0.45;0.30;;;9.90;87.70;;;;;;4988992;28;20057;-67
2023/11/03 10:12:09;;;;;;;0.35;0.35;;;9.90;88.00;;;;;;4986887;28;20038;-67
2023/11/03 10:14:35;;;;;;;0.87;0.50;;;9.90;88.30;;;;;;4985892;28;20038;-67
2023/11/03 10:17:00;;;;;;;0.98;0.60;;;9.90;88.40;;;;;;4987590;28;20042;-67
2023/11/03 10:19:27;;;;;;;1.27;0.70;;;10.00;88.30;;;;;;4993406;28;20476;-67
2023/11/03 10:21:54;;;;;;;1.40;0.70;;;10.00;88.30;;;;;;4990967;28;20023;-70
2023/11/03 10:24:21;;;;;;;0.55;0.45;;;10.10;88.40;;;;;;4994410;28;20106;-67
2023/11/03 10:26:47;;;;;;;4.13;0.80;;;10.20;87.50;;;;;;4986681;28;20201;-67
2023/11/03 10:29:12;;;;;;;0.50;0.50;;;10.40;87.60;;;;;;4988728;28;20531;-67
2023/11/03 10:31:39;;;;;;;1.30;0.43;;;10.80;87.30;;;;;;4991643;28;20080;-68
2023/11/03 10:34:05;;;;;;;1.85;0.70;;;10.80;85.60;;;;;;4987833;28;20046;-70
2023/11/03 10:36:32;;;;;;;0.98;0.70;;;10.80;85.70;;;;;;4991471;28;20035;-67
2023/11/03 10:38:57;;;;;;;2.03;0.52;;;10.80;85.60;;;;;;4986459;28;20117;-67
2023/11/03 10:41:25;;;;;;;2.55;0.63;;;10.80;85.50;;;;;;4990754;28;20128;-68
2023/11/03 10:43:57;;;;;;;3.50;0.90;;;10.80;84.80;;;;;;4989272;28;20060;-72
2023/11/03 10:46:37;;;;;;;2.20;0.82;;;10.80;84.60;;;;;;4983763;28;20022;-67
2023/11/03 10:49:11;;;;;;;4.18;0.77;;;10.80;85.60;;;;;;4991850;28;20483;-70
2023/11/03 10:51:39;;;;;;;0.50;0.50;;;10.80;84.90;;;;;;4990900;28;20021;-67
2023/11/03 10:54:30;;;;;;;1.33;0.75;;;10.70;84.70;;;;;;4990903;28;20037;-67
2023/11/03 10:56:57;;;;;;;1.40;0.68;;;10.80;84.80;;;;;;4992469;28;20038;-69
2023/11/03 10:59:23;;;;;;;1.65;0.63;;;10.90;84.50;;;;;;4987616;28;20499;-67
2023/11/03 11:01:58;;;;;;;1.17;0.60;;;11.00;84.50;;;;;;4990676;28;20022;-70
2023/11/03 11:04:42;;;;;;;1.85;1.00;;;11.10;84.30;;;;;;4990118;28;20037;-68
2023/11/03 11:07:15;;;;;;;1.20;0.82;;;11.30;84.20;;;;;;4988755;28;20494;-68
2023/11/03 11:09:45;;;;;;;1.50;0.50;;;11.50;83.40;;;;;;4991011;28;20074;-67
2023/11/03 11:12:13;;;;;;;1.67;0.70;;;11.50;82.80;;;;;;4985139;28;20026;-67
2023/11/03 11:14:40;;;;;;;0.95;0.45;;;11.50;82.80;;;;;;4987411;28;20076;-67
2023/11/03 11:17:11;;;;;;;0.38;0.30;;;11.60;83.30;;;;;;4990351;28;20042;-67
2023/11/03 11:19:43;;;;;;;1.20;0.47;;;11.50;82.90;;;;;;4988333;28;20031;-69
2023/11/03 11:22:13;;;;;;;2.35;0.60;;;11.50;82.50;;;;;;4985904;28;20368;-66
2023/11/03 11:24:40;;;;;;;1.55;0.75;;;11.40;82.90;;;;;;4991057;28;20027;-68
2023/11/03 11:27:12;;;;;;;1.20;0.70;;;11.40;83.10;;;;;;4986324;28;20054;-68
2023/11/03 11:29:38;;;;;;;3.30;0.70;;;11.30;83.90;;;;;;4989511;28;20033;-67
2023/11/03 11:32:06;;;;;;;1.33;0.68;;;11.30;83.80;;;;;;4987576;28;20034;-67
2023/11/03 11:34:32;;;;;;;0.77;0.55;;;11.30;83.60;;;;;;4992314;28;20325;-67
2023/11/03 11:37:24;;;;;;;1.35;0.65;;;11.40;83.60;;;;;;4989785;28;20038;-69
2023/11/03 11:39:52;;;;;;;0.98;0.60;;;11.40;83.00;;;;;;4986524;28;20039;-67
2023/11/03 11:42:19;;;;;;;2.38;0.85;;;11.50;83.30;;;;;;4986873;28;20471;-69
2023/11/03 11:44:45;;;;;;;1.20;0.60;;;11.60;83.70;;;;;;4992142;28;20026;-67
2023/11/03 11:47:11;;;;;;;1.13;0.40;;;11.50;82.60;;;;;;4987047;28;20352;-69
2023/11/03 11:49:38;;;;;;;2.35;0.60;;;11.50;83.40;;;;;;4988353;28;20034;-68
2023/11/03 11:52:05;;;;;;;0.77;0.50;;;11.40;84.10;;;;;;4978872;28;20061;-67
2023/11/03 11:54:30;;;;;;;1.33;0.70;;;11.30;83.40;;;;;;4977577;28;20031;-67
2023/11/03 11:56:57;;;;;;;2.85;1.25;;;11.30;83.60;;;;;;4979689;28;20061;-68
2023/11/03 11:59:23;;;;;;;1.20;0.60;;;11.30;83.60;;;;;;4981815;28;20023;-67
2023/11/03 12:01:50;;;;;;;1.95;0.75;;;11.20;83.60;;;;;;4978357;28;20029;-67
2023/11/03 12:04:17;;;;;;;1.50;0.80;;;11.10;83.80;;;;;;4981718;28;20479;-68
2023/11/03 12:06:43;;;;;;;0.90;0.73;;;11.10;84.50;;;;;;4977658;28;20031;-68
2023/11/03 12:09:10;;;;;;;2.67;0.80;;;11.00;84.10;;;;;;4981664;28;20049;-67
2023/11/03 12:11:39;;;;;;;1.08;0.80;;;11.10;84.50;;;;;;4984352;28;20495;-68
2023/11/03 12:14:06;;;;;;;1.00;0.70;;;11.00;84.50;;;;;;4978408;28;20050;-68
2023/11/03 12:16:34;;;;;;;2.47;0.93;;;11.00;84.80;;;;;;4988329;28;20376;-67
2023/11/03 12:18:59;;;;;;;0.90;0.77;;;11.00;85.40;;;;;;4998409;28;20026;-67
2023/11/03 12:21:25;;;;;;;1.52;0.82;;;11.10;84.60;;;;;;4991511;28;20026;-67
2023/11/03 12:23:55;;;;;;;4.57;0.90;;;11.20;84.50;;;;;;4995729;28;20045;-67
2023/11/03 12:26:20;;;;;;;2.88;1.13;;;11.20;84.20;;;;;;4983954;28;20522;-67
2023/11/03 12:28:46;;;;;;;2.03;0.88;;;11.20;84.60;;;;;;4985990;28;20049;-67
2023/11/03 12:31:12;;;;;;;2.33;1.00;;;11.20;84.50;;;;;;4991235;28;20077;-68
2023/11/03 12:33:38;;;;;;;0.68;0.60;;;11.10;85.10;;;;;;4990276;28;20121;-68
2023/11/03 12:36:07;;;;;;;2.05;0.90;;;11.20;85.40;;;;;;4990971;28;20038;-69
2023/11/03 12:38:44;;;;;;;1.08;0.63;;;11.10;85.40;;;;;;4988492;28;20471;-67
2023/11/03 12:41:14;;;;;;;1.75;0.85;;;11.00;85.60;;;;;;4986967;28;20483;-68
2023/11/03 12:43:41;;;;;;;2.23;0.87;;;11.00;85.90;;;;;;4988895;28;20038;-67
2023/11/03 12:46:10;;;;;;;1.20;0.60;;;11.00;86.00;;;;;;4990051;28;20037;-67
2023/11/03 12:48:36;;;;;;;2.67;0.95;;;11.00;86.40;;;;;;4989633;28;20056;-68